PWSweather.com
Personal Weather Stations
Station Observations
WATERF01
WaterfordIE

WaterfordIE

Lat: 52.2412507, Lon: -7.1414691

Elevation: 65

Station Type: Davis Vantage Vue

Latest ConditionsUpdated 4:50:00 PM GMT Tuesday, Jan 27, 2015
Currently Today's Max Today's Min Today's Average
Temperature 46.8°F8.2°C 47.7°F8.7°C 41.8°F5.4°C 44.1°F6.7°C
Dew Point 41.3°F5.2°C 43.1°F6.2°C 39.8°F4.3°C 41.2°F5.1°C
Winds 3.5 mph W5.6 kmh W 9.2 mph WSW14.8 kmh WSW - 2.8 mph 4.5 kmh
Wind Gusts 5.8 mph9.3 kmh 15.0 mph24.1 kmh - -
Humidity 81% 93% 81% 89%
Pressure 30.22 in1023.4 mb 30.48 in1032.2 mb 30.22 in1023.4 mb -
Hour Temp Dew Point Humidity Winds Wind Gusts Pressure Precip Precip Rate Daily Precip Total
04:50 PM 46.8°F8.2°C 41.3°F5.2°C 81% 3.5 mph W5.6 kmh W 5.8 mph9.3 kmh 30.22 in1023.4 mb 0.00 in0.0 mm 0.00 in/hr0.0 mm/hr 0.00 in0.0 mm
04:40 PM 46.9°F8.3°C 41.7°F5.4°C 82% 4.6 mph W7.4 kmh W 9.2 mph14.8 kmh 30.22 in1023.4 mb 0.00 in0.0 mm 0.00 in/hr0.0 mm/hr 0.00 in0.0 mm
04:30 PM 47.1°F8.4°C 41.9°F5.5°C 82% 1.2 mph WSW1.9 kmh WSW 5.8 mph9.3 kmh 30.23 in1023.7 mb 0.00 in0.0 mm 0.00 in/hr0.0 mm/hr 0.00 in0.0 mm
04:20 PM 47.4°F8.6°C 42.2°F5.7°C 82% 4.6 mph W7.4 kmh W 8.1 mph13.0 kmh 30.23 in1023.7 mb 0.00 in0.0 mm 0.00 in/hr0.0 mm/hr 0.00 in0.0 mm
04:10 PM 47.3°F8.5°C 42.1°F5.6°C 82% 3.5 mph WSW5.6 kmh WSW 5.8 mph9.3 kmh 30.23 in1023.7 mb 0.00 in0.0 mm 0.00 in/hr0.0 mm/hr 0.00 in0.0 mm
04:00 PM 47.3°F8.5°C 42.1°F5.6°C 82% 5.8 mph SW9.3 kmh SW 9.2 mph14.8 kmh 30.23 in1023.7 mb 0.00 in0.0 mm 0.00 in/hr0.0 mm/hr 0.00 in0.0 mm
03:50 PM 47.3°F8.5°C 42.4°F5.8°C 83% 6.9 mph W11.1 kmh W 11.5 mph18.5 kmh 30.24 in1024.0 mb 0.00 in0.0 mm 0.00 in/hr0.0 mm/hr 0.00 in0.0 mm
03:40 PM 47.2°F8.4°C 42.3°F5.7°C 83% 4.6 mph WNW7.4 kmh WNW 6.9 mph11.1 kmh 30.24 in1024.0 mb 0.00 in0.0 mm 0.00 in/hr0.0 mm/hr 0.00 in0.0 mm
03:30 PM 47.2°F8.4°C 42.6°F5.9°C 84% 5.8 mph W9.3 kmh W 11.5 mph18.5 kmh 30.24 in1024.0 mb 0.00 in0.0 mm 0.00 in/hr0.0 mm/hr 0.00 in0.0 mm
03:20 PM 47.3°F8.5°C 42.4°F5.8°C 83% 6.9 mph WNW11.1 kmh WNW 11.5 mph18.5 kmh 30.25 in1024.4 mb 0.00 in0.0 mm 0.00 in/hr0.0 mm/hr 0.00 in0.0 mm
03:10 PM 47.4°F8.6°C 42.5°F5.8°C 83% 9.2 mph WSW14.8 kmh WSW 13.8 mph22.2 kmh 30.25 in1024.4 mb 0.00 in0.0 mm 0.00 in/hr0.0 mm/hr 0.00 in0.0 mm
03:00 PM 47.4°F8.6°C 42.5°F5.8°C 83% 6.9 mph SSW11.1 kmh SSW 11.5 mph18.5 kmh 30.25 in1024.4 mb 0.00 in0.0 mm 0.00 in/hr0.0 mm/hr 0.00 in0.0 mm
02:50 PM 47.6°F8.7°C 42.7°F5.9°C 83% 8.1 mph WNW13.0 kmh WNW 15.0 mph24.1 kmh 30.25 in1024.4 mb 0.00 in0.0 mm 0.00 in/hr0.0 mm/hr 0.00 in0.0 mm
02:40 PM 47.7°F8.7°C 43.1°F6.2°C 84% 8.1 mph WNW13.0 kmh WNW 13.8 mph22.2 kmh 30.25 in1024.4 mb 0.00 in0.0 mm 0.00 in/hr0.0 mm/hr 0.00 in0.0 mm
02:30 PM 47.3°F8.5°C 42.7°F5.9°C 84% 8.1 mph W13.0 kmh W 12.7 mph20.4 kmh 30.26 in1024.7 mb 0.00 in0.0 mm 0.00 in/hr0.0 mm/hr 0.00 in0.0 mm
02:20 PM 47.1°F8.4°C 43.1°F6.2°C 86% 6.9 mph W11.1 kmh W 11.5 mph18.5 kmh 30.27 in1025.1 mb 0.00 in0.0 mm 0.00 in/hr0.0 mm/hr 0.00 in0.0 mm
02:10 PM 46.9°F8.3°C 42.9°F6.1°C 86% 5.8 mph WNW9.3 kmh WNW 8.1 mph13.0 kmh 30.28 in1025.4 mb 0.00 in0.0 mm 0.00 in/hr0.0 mm/hr 0.00 in0.0 mm
02:00 PM 46.8°F8.2°C 42.8°F6.0°C 86% 2.3 mph W3.7 kmh W 4.6 mph7.4 kmh 30.29 in1025.7 mb 0.00 in0.0 mm 0.00 in/hr0.0 mm/hr 0.00 in0.0 mm
01:50 PM 46.9°F8.3°C 42.6°F5.9°C 85% 4.6 mph W7.4 kmh W 9.2 mph14.8 kmh 30.29 in1025.7 mb 0.00 in0.0 mm 0.00 in/hr0.0 mm/hr 0.00 in0.0 mm
01:40 PM 47.1°F8.4°C 42.8°F6.0°C 85% 6.9 mph NW11.1 kmh NW 9.2 mph14.8 kmh 30.30 in1026.1 mb 0.00 in0.0 mm 0.00 in/hr0.0 mm/hr 0.00 in0.0 mm
01:30 PM 46.9°F8.3°C 42.3°F5.7°C 84% 4.6 mph W7.4 kmh W 11.5 mph18.5 kmh 30.30 in1026.1 mb 0.00 in0.0 mm 0.00 in/hr0.0 mm/hr 0.00 in0.0 mm
01:20 PM 46.9°F8.3°C 42.0°F5.6°C 83% 4.6 mph W7.4 kmh W 8.1 mph13.0 kmh 30.31 in1026.4 mb 0.00 in0.0 mm 0.00 in/hr0.0 mm/hr 0.00 in0.0 mm
01:10 PM 46.9°F8.3°C 42.3°F5.7°C 84% 4.6 mph WNW7.4 kmh WNW 8.1 mph13.0 kmh 30.32 in1026.8 mb 0.00 in0.0 mm 0.00 in/hr0.0 mm/hr 0.00 in0.0 mm
01:00 PM 46.6°F8.1°C 42.0°F5.6°C 84% 3.5 mph W5.6 kmh W 8.1 mph13.0 kmh 30.33 in1027.1 mb 0.00 in0.0 mm 0.00 in/hr0.0 mm/hr 0.00 in0.0 mm
12:50 PM 46.6°F8.1°C 42.4°F5.8°C 85% 4.6 mph NW7.4 kmh NW 8.1 mph13.0 kmh 30.34 in1027.4 mb 0.00 in0.0 mm 0.00 in/hr0.0 mm/hr 0.00 in0.0 mm
12:40 PM 46.6°F8.1°C 42.4°F5.8°C 85% 3.5 mph WNW5.6 kmh WNW 6.9 mph11.1 kmh 30.35 in1027.8 mb 0.00 in0.0 mm 0.00 in/hr0.0 mm/hr 0.00 in0.0 mm
12:30 PM 47.1°F8.4°C 42.8°F6.0°C 85% 5.8 mph W9.3 kmh W 8.1 mph13.0 kmh 30.36 in1028.1 mb 0.00 in0.0 mm 0.00 in/hr0.0 mm/hr 0.00 in0.0 mm
12:20 PM 47.1°F8.4°C 43.1°F6.2°C 86% 6.9 mph WSW11.1 kmh WSW 9.2 mph14.8 kmh 30.36 in1028.1 mb 0.00 in0.0 mm 0.00 in/hr0.0 mm/hr 0.00 in0.0 mm
12:10 PM 46.2°F7.9°C 42.9°F6.1°C 88% 4.6 mph WSW7.4 kmh WSW 8.1 mph13.0 kmh 30.36 in1028.1 mb 0.00 in0.0 mm 0.00 in/hr0.0 mm/hr 0.00 in0.0 mm
12:00 PM 45.5°F7.5°C 42.5°F5.8°C 89% 4.6 mph NW7.4 kmh NW 9.2 mph14.8 kmh 30.37 in1028.4 mb 0.00 in0.0 mm 0.00 in/hr0.0 mm/hr 0.00 in0.0 mm
11:50 AM 45.2°F7.3°C 42.4°F5.8°C 90% 4.6 mph W7.4 kmh W 9.2 mph14.8 kmh 30.38 in1028.8 mb 0.00 in0.0 mm 0.00 in/hr0.0 mm/hr 0.00 in0.0 mm
11:40 AM 44.9°F7.2°C 42.1°F5.6°C 90% 3.5 mph WNW5.6 kmh WNW 8.1 mph13.0 kmh 30.38 in1028.8 mb 0.00 in0.0 mm 0.00 in/hr0.0 mm/hr 0.00 in0.0 mm
11:30 AM 44.9°F7.2°C 42.4°F5.8°C 91% 3.5 mph W5.6 kmh W 6.9 mph11.1 kmh 30.39 in1029.1 mb 0.00 in0.0 mm 0.00 in/hr0.0 mm/hr 0.00 in0.0 mm
11:20 AM 44.7°F7.1°C 42.2°F5.7°C 91% 2.3 mph WNW3.7 kmh WNW 5.8 mph9.3 kmh 30.39 in1029.1 mb 0.00 in0.0 mm 0.00 in/hr0.0 mm/hr 0.00 in0.0 mm
11:10 AM 44.4°F6.9°C 41.9°F5.5°C 91% 5.8 mph W9.3 kmh W 11.5 mph18.5 kmh 30.39 in1029.1 mb 0.00 in0.0 mm 0.00 in/hr0.0 mm/hr 0.00 in0.0 mm
11:00 AM 44.3°F6.8°C 41.8°F5.4°C 91% 5.8 mph W9.3 kmh W 9.2 mph14.8 kmh 30.40 in1029.5 mb 0.00 in0.0 mm 0.00 in/hr0.0 mm/hr 0.00 in0.0 mm
10:50 AM 44.1°F6.7°C 41.7°F5.4°C 91% 8.1 mph WSW13.0 kmh WSW 12.7 mph20.4 kmh 30.40 in1029.5 mb 0.00 in0.0 mm 0.00 in/hr0.0 mm/hr 0.00 in0.0 mm
10:40 AM 44.0°F6.7°C 41.5°F5.3°C 91% 4.6 mph W7.4 kmh W 8.1 mph13.0 kmh 30.40 in1029.5 mb 0.00 in0.0 mm 0.00 in/hr0.0 mm/hr 0.00 in0.0 mm
10:30 AM 43.8°F6.6°C 41.6°F5.3°C 92% 3.5 mph WNW5.6 kmh WNW 5.8 mph9.3 kmh 30.41 in1029.8 mb 0.00 in0.0 mm 0.00 in/hr0.0 mm/hr 0.00 in0.0 mm
10:20 AM 43.6°F6.4°C 41.5°F5.3°C 92% 2.3 mph WNW3.7 kmh WNW 4.6 mph7.4 kmh 30.41 in1029.8 mb 0.00 in0.0 mm 0.00 in/hr0.0 mm/hr 0.00 in0.0 mm
10:10 AM 43.5°F6.4°C 41.3°F5.2°C 92% 2.3 mph WNW3.7 kmh WNW 5.8 mph9.3 kmh 30.42 in1030.1 mb 0.00 in0.0 mm 0.00 in/hr0.0 mm/hr 0.00 in0.0 mm
10:00 AM 43.3°F6.3°C 41.1°F5.1°C 92% 2.3 mph WNW3.7 kmh WNW 5.8 mph9.3 kmh 30.42 in1030.1 mb 0.00 in0.0 mm 0.00 in/hr0.0 mm/hr 0.00 in0.0 mm
09:50 AM 43.1°F6.2°C 40.9°F4.9°C 92% 3.5 mph WNW5.6 kmh WNW 6.9 mph11.1 kmh 30.42 in1030.1 mb 0.00 in0.0 mm 0.00 in/hr0.0 mm/hr 0.00 in0.0 mm
09:40 AM 42.9°F6.1°C 40.7°F4.8°C 92% 3.5 mph WNW5.6 kmh WNW 5.8 mph9.3 kmh 30.42 in1030.1 mb 0.00 in0.0 mm 0.00 in/hr0.0 mm/hr 0.00 in0.0 mm
09:30 AM 42.9°F6.1°C 40.7°F4.8°C 92% 3.5 mph WNW5.6 kmh WNW 5.8 mph9.3 kmh 30.42 in1030.1 mb 0.00 in0.0 mm 0.00 in/hr0.0 mm/hr 0.00 in0.0 mm
09:20 AM 42.8°F6.0°C 40.6°F4.8°C 92% 2.3 mph WNW3.7 kmh WNW 5.8 mph9.3 kmh 30.42 in1030.1 mb 0.00 in0.0 mm 0.00 in/hr0.0 mm/hr 0.00 in0.0 mm
09:10 AM 42.7°F5.9°C 40.5°F4.7°C 92% 3.5 mph WNW5.6 kmh WNW 5.8 mph9.3 kmh 30.42 in1030.1 mb 0.00 in0.0 mm 0.00 in/hr0.0 mm/hr 0.00 in0.0 mm
09:00 AM 42.4°F5.8°C 40.2°F4.6°C 92% 2.3 mph W3.7 kmh W 4.6 mph7.4 kmh 30.42 in1030.1 mb 0.00 in0.0 mm 0.00 in/hr0.0 mm/hr 0.00 in0.0 mm
08:50 AM 42.3°F5.7°C 40.1°F4.5°C 92% Calm Calm -- 30.42 in1030.1 mb 0.00 in0.0 mm 0.00 in/hr0.0 mm/hr 0.00 in0.0 mm
08:40 AM 42.4°F5.8°C 40.2°F4.6°C 92% 2.3 mph WNW3.7 kmh WNW 5.8 mph9.3 kmh 30.42 in1030.1 mb 0.00 in0.0 mm 0.00 in/hr0.0 mm/hr 0.00 in0.0 mm
08:30 AM 42.5°F5.8°C 40.3°F4.6°C 92% 1.2 mph WSW1.9 kmh WSW 2.3 mph3.7 kmh 30.43 in1030.5 mb 0.00 in0.0 mm 0.00 in/hr0.0 mm/hr 0.00 in0.0 mm
08:20 AM 42.5°F5.8°C 40.3°F4.6°C 92% 1.2 mph WSW1.9 kmh WSW 2.3 mph3.7 kmh 30.42 in1030.1 mb 0.00 in0.0 mm 0.00 in/hr0.0 mm/hr 0.00 in0.0 mm
08:10 AM 42.5°F5.8°C 40.3°F4.6°C 92% 2.3 mph WSW3.7 kmh WSW 4.6 mph7.4 kmh 30.43 in1030.5 mb 0.00 in0.0 mm 0.00 in/hr0.0 mm/hr 0.00 in0.0 mm
08:00 AM 42.5°F5.8°C 40.4°F4.7°C 92% 3.5 mph W5.6 kmh W 6.9 mph11.1 kmh 30.42 in1030.1 mb 0.00 in0.0 mm 0.00 in/hr0.0 mm/hr 0.00 in0.0 mm
07:50 AM 42.7°F5.9°C 40.5°F4.7°C 92% Calm Calm 2.3 mph3.7 kmh 30.42 in1030.1 mb 0.00 in0.0 mm 0.00 in/hr0.0 mm/hr 0.00 in0.0 mm
07:40 AM 42.8°F6.0°C 40.6°F4.8°C 92% Calm Calm 1.2 mph1.9 kmh 30.42 in1030.1 mb 0.00 in0.0 mm 0.00 in/hr0.0 mm/hr 0.00 in0.0 mm
07:30 AM 42.9°F6.1°C 40.7°F4.8°C 92% 2.3 mph W3.7 kmh W 4.6 mph7.4 kmh 30.42 in1030.1 mb 0.00 in0.0 mm 0.00 in/hr0.0 mm/hr 0.00 in0.0 mm
07:20 AM 42.7°F5.9°C 40.6°F4.8°C 92% 1.2 mph W1.9 kmh W 2.3 mph3.7 kmh 30.41 in1029.8 mb 0.00 in0.0 mm 0.00 in/hr0.0 mm/hr 0.00 in0.0 mm
07:10 AM 42.4°F5.8°C 40.3°F4.6°C 92% 2.3 mph SW3.7 kmh SW 5.8 mph9.3 kmh 30.41 in1029.8 mb 0.00 in0.0 mm 0.00 in/hr0.0 mm/hr 0.00 in0.0 mm
07:00 AM 42.4°F5.8°C 40.0°F4.4°C 91% 2.3 mph WSW3.7 kmh WSW 5.8 mph9.3 kmh 30.42 in1030.1 mb 0.00 in0.0 mm 0.00 in/hr0.0 mm/hr 0.00 in0.0 mm
06:50 AM 42.9°F6.1°C 40.4°F4.7°C 91% 2.3 mph SSW3.7 kmh SSW 4.6 mph7.4 kmh 30.42 in1030.1 mb 0.00 in0.0 mm 0.00 in/hr0.0 mm/hr 0.00 in0.0 mm
06:40 AM 43.0°F6.1°C 40.6°F4.8°C 91% 1.2 mph W1.9 kmh W 4.6 mph7.4 kmh 30.42 in1030.1 mb 0.00 in0.0 mm 0.00 in/hr0.0 mm/hr 0.00 in0.0 mm
06:30 AM 42.8°F6.0°C 40.6°F4.8°C 92% 2.3 mph WNW3.7 kmh WNW 5.8 mph9.3 kmh 30.43 in1030.5 mb 0.00 in0.0 mm 0.00 in/hr0.0 mm/hr 0.00 in0.0 mm
06:20 AM 42.6°F5.9°C 40.7°F4.8°C 93% Calm Calm 1.2 mph1.9 kmh 30.43 in1030.5 mb 0.00 in0.0 mm 0.00 in/hr0.0 mm/hr 0.00 in0.0 mm
06:10 AM 42.2°F5.7°C 40.3°F4.6°C 93% Calm Calm 1.2 mph1.9 kmh 30.43 in1030.5 mb 0.00 in0.0 mm 0.00 in/hr0.0 mm/hr 0.00 in0.0 mm
06:00 AM 42.0°F5.6°C 40.1°F4.5°C 93% 1.2 mph WNW1.9 kmh WNW 2.3 mph3.7 kmh 30.43 in1030.5 mb 0.00 in0.0 mm 0.00 in/hr0.0 mm/hr 0.00 in0.0 mm
05:50 AM 41.8°F5.4°C 40.0°F4.4°C 93% Calm Calm 1.2 mph1.9 kmh 30.43 in1030.5 mb 0.00 in0.0 mm 0.00 in/hr0.0 mm/hr 0.00 in0.0 mm
05:40 AM 41.9°F5.5°C 40.0°F4.4°C 93% Calm Calm -- 30.43 in1030.5 mb 0.00 in0.0 mm 0.00 in/hr0.0 mm/hr 0.00 in0.0 mm
05:30 AM 42.0°F5.6°C 39.8°F4.3°C 92% Calm Calm -- 30.43 in1030.5 mb 0.00 in0.0 mm 0.00 in/hr0.0 mm/hr 0.00 in0.0 mm
05:20 AM 42.2°F5.7°C 40.0°F4.4°C 92% Calm Calm -- 30.44 in1030.8 mb 0.00 in0.0 mm 0.00 in/hr0.0 mm/hr 0.00 in0.0 mm
05:10 AM 42.7°F5.9°C 40.5°F4.7°C 92% Calm Calm -- 30.44 in1030.8 mb 0.00 in0.0 mm 0.00 in/hr0.0 mm/hr 0.00 in0.0 mm
05:00 AM 42.9°F6.1°C 40.7°F4.8°C 92% Calm Calm 1.2 mph1.9 kmh 30.44 in1030.8 mb 0.00 in0.0 mm 0.00 in/hr0.0 mm/hr 0.00 in0.0 mm
04:50 AM 42.8°F6.0°C 40.7°F4.8°C 92% 2.3 mph NW3.7 kmh NW 4.6 mph7.4 kmh 30.45 in1031.2 mb 0.00 in0.0 mm 0.00 in/hr0.0 mm/hr 0.00 in0.0 mm
04:40 AM 42.6°F5.9°C 40.4°F4.7°C 92% 1.2 mph SW1.9 kmh SW 2.3 mph3.7 kmh 30.45 in1031.2 mb 0.00 in0.0 mm 0.00 in/hr0.0 mm/hr 0.00 in0.0 mm
04:30 AM 42.8°F6.0°C 40.6°F4.8°C 92% Calm Calm -- 30.45 in1031.2 mb 0.00 in0.0 mm 0.00 in/hr0.0 mm/hr 0.00 in0.0 mm
04:20 AM 42.9°F6.1°C 40.7°F4.8°C 92% Calm Calm -- 30.45 in1031.2 mb 0.00 in0.0 mm 0.00 in/hr0.0 mm/hr 0.00 in0.0 mm
04:10 AM 43.0°F6.1°C 40.8°F4.9°C 92% Calm Calm -- 30.45 in1031.2 mb 0.00 in0.0 mm 0.00 in/hr0.0 mm/hr 0.00 in0.0 mm
04:00 AM 43.1°F6.2°C 40.9°F4.9°C 92% 1.2 mph NNW1.9 kmh NNW 2.3 mph3.7 kmh 30.46 in1031.5 mb 0.00 in0.0 mm 0.00 in/hr0.0 mm/hr 0.00 in0.0 mm
03:50 AM 43.0°F6.1°C 40.8°F4.9°C 92% 2.3 mph NNW3.7 kmh NNW 5.8 mph9.3 kmh 30.46 in1031.5 mb 0.00 in0.0 mm 0.00 in/hr0.0 mm/hr 0.00 in0.0 mm
03:40 AM 42.9°F6.1°C 40.7°F4.8°C 92% 1.2 mph NNW1.9 kmh NNW 4.6 mph7.4 kmh 30.45 in1031.2 mb 0.00 in0.0 mm 0.00 in/hr0.0 mm/hr 0.00 in0.0 mm
03:30 AM 42.8°F6.0°C 40.6°F4.8°C 92% Calm Calm 1.2 mph1.9 kmh 30.46 in1031.5 mb 0.00 in0.0 mm 0.00 in/hr0.0 mm/hr 0.00 in0.0 mm
03:20 AM 42.7°F5.9°C 40.5°F4.7°C 92% Calm Calm -- 30.46 in1031.5 mb 0.00 in0.0 mm 0.00 in/hr0.0 mm/hr 0.00 in0.0 mm
03:10 AM 42.6°F5.9°C 40.4°F4.7°C 92% Calm Calm -- 30.46 in1031.5 mb 0.00 in0.0 mm 0.00 in/hr0.0 mm/hr 0.00 in0.0 mm
03:00 AM 42.6°F5.9°C 40.4°F4.7°C 92% Calm Calm -- 30.47 in1031.8 mb 0.00 in0.0 mm 0.00 in/hr0.0 mm/hr 0.00 in0.0 mm
02:50 AM 42.6°F5.9°C 40.4°F4.7°C 92% Calm Calm -- 30.47 in1031.8 mb 0.00 in0.0 mm 0.00 in/hr0.0 mm/hr 0.00 in0.0 mm
02:40 AM 42.5°F5.8°C 40.4°F4.7°C 92% Calm Calm -- 30.47 in1031.8 mb 0.00 in0.0 mm 0.00 in/hr0.0 mm/hr 0.00 in0.0 mm
02:30 AM 42.6°F5.9°C 40.4°F4.7°C 92% Calm Calm -- 30.47 in1031.8 mb 0.00 in0.0 mm 0.00 in/hr0.0 mm/hr 0.00 in0.0 mm
02:20 AM 42.7°F5.9°C 40.3°F4.6°C 91% Calm Calm 2.3 mph3.7 kmh 30.47 in1031.8 mb 0.00 in0.0 mm 0.00 in/hr0.0 mm/hr 0.00 in0.0 mm
02:10 AM 42.8°F6.0°C 40.4°F4.7°C 91% 1.2 mph W1.9 kmh W 4.6 mph7.4 kmh 30.47 in1031.8 mb 0.00 in0.0 mm 0.00 in/hr0.0 mm/hr 0.00 in0.0 mm
02:00 AM 42.8°F6.0°C 40.4°F4.7°C 91% 1.2 mph W1.9 kmh W 2.3 mph3.7 kmh 30.48 in1032.2 mb 0.00 in0.0 mm 0.00 in/hr0.0 mm/hr 0.00 in0.0 mm
01:50 AM 42.8°F6.0°C 40.4°F4.7°C 91% Calm Calm -- 30.47 in1031.8 mb 0.00 in0.0 mm 0.00 in/hr0.0 mm/hr 0.00 in0.0 mm
01:40 AM 42.8°F6.0°C 40.4°F4.7°C 91% 1.2 mph NW1.9 kmh NW 2.3 mph3.7 kmh 30.47 in1031.8 mb 0.00 in0.0 mm 0.00 in/hr0.0 mm/hr 0.00 in0.0 mm
01:30 AM 42.8°F6.0°C 40.4°F4.7°C 91% Calm Calm 4.6 mph7.4 kmh 30.47 in1031.8 mb 0.00 in0.0 mm 0.00 in/hr0.0 mm/hr 0.00 in0.0 mm
01:20 AM 42.8°F6.0°C 40.4°F4.7°C 91% 2.3 mph W3.7 kmh W 4.6 mph7.4 kmh 30.47 in1031.8 mb 0.00 in0.0 mm 0.00 in/hr0.0 mm/hr 0.00 in0.0 mm
01:10 AM 42.9°F6.1°C 40.4°F4.7°C 91% 1.2 mph WNW1.9 kmh WNW 5.8 mph9.3 kmh 30.47 in1031.8 mb 0.00 in0.0 mm 0.00 in/hr0.0 mm/hr 0.00 in0.0 mm
01:00 AM 42.9°F6.1°C 40.4°F4.7°C 91% 2.3 mph WNW3.7 kmh WNW 5.8 mph9.3 kmh 30.47 in1031.8 mb 0.00 in0.0 mm 0.00 in/hr0.0 mm/hr 0.00 in0.0 mm
12:50 AM 42.8°F6.0°C 40.4°F4.7°C 91% 2.3 mph W3.7 kmh W 5.8 mph9.3 kmh 30.47 in1031.8 mb 0.00 in0.0 mm 0.00 in/hr0.0 mm/hr 0.00 in0.0 mm
12:40 AM 42.8°F6.0°C 40.1°F4.5°C 90% 3.5 mph W5.6 kmh W 8.1 mph13.0 kmh 30.47 in1031.8 mb 0.00 in0.0 mm 0.00 in/hr0.0 mm/hr 0.00 in0.0 mm
12:30 AM 42.9°F6.1°C 40.1°F4.5°C 90% 2.3 mph WSW3.7 kmh WSW 5.8 mph9.3 kmh 30.47 in1031.8 mb 0.00 in0.0 mm 0.00 in/hr0.0 mm/hr 0.00 in0.0 mm
12:20 AM 42.9°F6.1°C 39.9°F4.4°C 89% 1.2 mph SSW1.9 kmh SSW 2.3 mph3.7 kmh 30.47 in1031.8 mb 0.00 in0.0 mm 0.00 in/hr0.0 mm/hr 0.00 in0.0 mm
12:10 AM 43.0°F6.1°C 40.0°F4.4°C 89% 1.2 mph W1.9 kmh W 2.3 mph3.7 kmh 30.47 in1031.8 mb 0.00 in0.0 mm 0.00 in/hr0.0 mm/hr 0.00 in0.0 mm
12:00 AM 43.2°F6.2°C 40.1°F4.5°C 89% 3.5 mph WNW5.6 kmh WNW 5.8 mph9.3 kmh 30.47 in1031.8 mb 0.00 in0.0 mm 0.00 in/hr0.0 mm/hr 0.00 in0.0 mm